Time;durP1;ratioP1;P1;durP2;ratioP2;P2;SDS_P1;SDS_P2;PMS_P1;PMS_P2;Temp;Humidity;BMP_temperature;BMP_pressure;BME280_temperature;BME280_humidity;BME280_pressure;Samples;Min_cycle;Max_cycle;Signal;HPM_P1;HPM_P2
2022/09/24 00:02:22;;;;;;;18.83;15.35;;;16.10;99.90;;;;;;5012736;28;20168;-80
2022/09/24 00:04:48;;;;;;;18.58;14.02;;;15.90;99.90;;;;;;5012938;28;20195;-79
2022/09/24 00:07:13;;;;;;;22.60;13.88;;;15.90;99.90;;;;;;5012931;28;20168;-80
2022/09/24 00:09:39;;;;;;;17.50;12.90;;;15.90;99.90;;;;;;5013304;28;20255;-79
2022/09/24 00:12:05;;;;;;;14.55;12.38;;;15.80;99.90;;;;;;5012834;28;20164;-84
2022/09/24 00:14:31;;;;;;;15.68;11.38;;;15.70;99.90;;;;;;5013142;28;20279;-80
2022/09/24 00:16:56;;;;;;;19.45;11.20;;;15.60;99.90;;;;;;5013065;28;20215;-81
2022/09/24 00:19:22;;;;;;;13.68;10.93;;;15.60;99.90;;;;;;5013702;28;20177;-79
2022/09/24 00:21:48;;;;;;;24.83;11.38;;;15.80;99.90;;;;;;5014090;28;20165;-80
2022/09/24 00:26:48;;;;;;;12.60;11.30;;;15.70;99.90;;;;;;5013507;28;20587;-80
2022/09/24 00:27:02;;;;;;;12.48;11.18;;;15.70;99.90;;;;;;5013009;28;20272;-79
2022/09/24 00:29:30;;;;;;;14.07;11.02;;;15.70;99.90;;;;;;5012578;28;20191;-80
2022/09/24 00:31:55;;;;;;;18.50;10.90;;;15.70;99.90;;;;;;5012314;28;20160;-80
2022/09/24 00:34:21;;;;;;;12.55;10.60;;;15.60;99.90;;;;;;5012332;28;20677;-80
2022/09/24 00:36:47;;;;;;;15.68;10.57;;;15.60;99.90;;;;;;5012096;28;20216;-79
2022/09/24 00:39:13;;;;;;;13.88;10.43;;;15.50;99.90;;;;;;5012356;28;20631;-79
2022/09/24 00:41:45;;;;;;;14.23;10.10;;;15.50;99.90;;;;;;5012102;28;20169;-80
2022/09/24 00:44:36;;;;;;;12.95;10.15;;;15.60;99.90;;;;;;5012129;28;20216;-79
2022/09/24 00:47:02;;;;;;;11.90;10.05;;;15.60;99.90;;;;;;5012283;28;20184;-80
2022/09/24 00:49:27;;;;;;;11.10;10.00;;;15.60;99.90;;;;;;5011111;28;20239;-80
2022/09/24 00:51:53;;;;;;;16.90;9.75;;;15.60;99.90;;;;;;5012404;28;20168;-82
2022/09/24 00:54:23;;;;;;;9.48;8.25;;;15.50;99.90;;;;;;5012090;28;20310;-79
2022/09/24 00:56:51;;;;;;;11.32;9.60;;;15.50;99.90;;;;;;5012287;28;20204;-80
2022/09/24 00:59:20;;;;;;;11.73;8.93;;;15.60;99.90;;;;;;5012397;28;20227;-80
2022/09/24 01:01:47;;;;;;;11.15;10.07;;;15.40;99.90;;;;;;5012128;28;20168;-80
2022/09/24 01:04:15;;;;;;;14.05;9.68;;;15.40;99.90;;;;;;5015543;28;20189;-79
2022/09/24 01:06:40;;;;;;;10.85;9.77;;;15.40;99.90;;;;;;5016002;28;20165;-80
2022/09/24 01:09:07;;;;;;;9.40;8.43;;;15.30;99.90;;;;;;5015965;28;20172;-81
2022/09/24 01:11:32;;;;;;;10.32;9.10;;;15.30;99.90;;;;;;5015861;28;20210;-80
2022/09/24 01:14:13;;;;;;;11.48;9.18;;;15.40;99.90;;;;;;5015839;28;20196;-80
2022/09/24 01:17:10;;;;;;;14.98;9.13;;;15.30;99.90;;;;;;5015659;28;20212;-79
2022/09/24 01:20:03;;;;;;;15.57;10.13;;;15.30;99.90;;;;;;5015772;28;20302;-83
2022/09/24 01:23:07;;;;;;;12.90;10.57;;;15.30;99.90;;;;;;5015620;28;20173;-79
2022/09/24 01:26:06;;;;;;;17.30;10.38;;;15.30;99.90;;;;;;5015395;28;20204;-80
2022/09/24 01:28:34;;;;;;;16.33;10.70;;;15.40;99.90;;;;;;5014214;28;20176;-82
2022/09/24 01:31:15;;;;;;;10.30;8.82;;;15.30;99.90;;;;;;5015536;28;20176;-80
2022/09/24 01:33:44;;;;;;;12.20;10.05;;;15.20;99.90;;;;;;5015576;28;20283;-79
2022/09/24 01:36:11;;;;;;;13.07;11.00;;;15.10;99.90;;;;;;5015500;28;20293;-79
2022/09/24 01:38:41;;;;;;;15.80;11.40;;;15.20;99.90;;;;;;5015916;28;20169;-81
2022/09/24 01:41:09;;;;;;;12.30;10.75;;;15.20;99.90;;;;;;5015232;28;20177;-79
2022/09/24 01:43:35;;;;;;;12.35;11.02;;;15.30;99.90;;;;;;5015525;28;20276;-79
2022/09/24 01:46:04;;;;;;;14.25;11.57;;;15.30;99.90;;;;;;5015592;28;20895;-79
2022/09/24 01:48:32;;;;;;;13.57;10.73;;;15.30;99.90;;;;;;5015608;28;20180;-81
2022/09/24 01:51:14;;;;;;;13.07;11.05;;;15.40;99.90;;;;;;5014332;28;20546;-80
2022/09/24 01:54:02;;;;;;;15.00;12.38;;;15.20;99.90;;;;;;5015448;28;20259;-79
2022/09/24 01:56:50;;;;;;;12.45;11.05;;;15.20;99.90;;;;;;5025283;28;20197;-80
2022/09/24 01:59:26;;;;;;;17.85;12.52;;;15.40;99.90;;;;;;5037055;28;20192;-79
2022/09/24 02:02:13;;;;;;;20.48;12.57;;;15.60;99.90;;;;;;5024036;28;20168;-80
2022/09/24 02:04:44;;;;;;;17.20;12.32;;;15.60;99.90;;;;;;5015126;28;20191;-79
2022/09/24 02:07:15;;;;;;;18.58;13.02;;;15.40;99.90;;;;;;5015175;28;20169;-80
2022/09/24 02:09:42;;;;;;;23.50;13.95;;;15.60;99.90;;;;;;5015072;28;20167;-79
2022/09/24 02:12:15;;;;;;;18.92;13.45;;;15.60;99.90;;;;;;5015115;28;20176;-79
2022/09/24 02:15:04;;;;;;;18.27;12.90;;;15.60;99.90;;;;;;5014463;28;20176;-79
2022/09/24 02:17:33;;;;;;;17.85;12.88;;;15.50;99.90;;;;;;5014669;28;20239;-80
2022/09/24 02:20:03;;;;;;;18.17;13.80;;;15.40;99.90;;;;;;5015005;28;20557;-80
2022/09/24 02:22:30;;;;;;;21.05;13.68;;;15.50;99.90;;;;;;5014789;28;20173;-83
2022/09/24 02:24:59;;;;;;;17.52;13.68;;;15.60;99.90;;;;;;5014250;28;20983;-79
2022/09/24 02:27:27;;;;;;;14.70;12.32;;;15.60;99.90;;;;;;5013996;28;20168;-79
2022/09/24 02:29:54;;;;;;;13.80;11.82;;;15.60;99.90;;;;;;5014480;28;20642;-79
2022/09/24 02:32:22;;;;;;;15.70;12.15;;;15.50;99.90;;;;;;5014703;28;20173;-79
2022/09/24 02:34:51;;;;;;;15.52;12.52;;;15.50;99.90;;;;;;5014554;28;20554;-79
2022/09/24 02:37:19;;;;;;;23.77;12.80;;;15.60;99.90;;;;;;5014355;28;20204;-79
2022/09/24 02:39:44;;;;;;;12.88;11.52;;;15.40;99.90;;;;;;5014731;28;20168;-79
2022/09/24 02:42:12;;;;;;;16.63;12.15;;;15.40;99.90;;;;;;5014429;28;20646;-79
2022/09/24 02:44:38;;;;;;;14.63;11.45;;;15.50;99.90;;;;;;5012879;28;20191;-80
2022/09/24 02:47:05;;;;;;;18.38;11.30;;;15.60;99.90;;;;;;5014099;28;20164;-82
2022/09/24 02:49:31;;;;;;;17.70;12.23;;;15.30;99.90;;;;;;5014058;28;20172;-80
2022/09/24 02:51:57;;;;;;;14.25;11.45;;;15.20;99.90;;;;;;5013857;28;20231;-80
2022/09/24 02:54:23;;;;;;;14.68;11.70;;;15.40;99.90;;;;;;5013525;28;20275;-79
2022/09/24 02:56:50;;;;;;;18.17;12.70;;;15.50;99.90;;;;;;5014063;28;20697;-81
2022/09/24 02:59:15;;;;;;;14.95;12.25;;;15.40;99.90;;;;;;5012781;28;20177;-80
2022/09/24 03:01:41;;;;;;;17.05;11.18;;;15.40;99.90;;;;;;5013737;28;20172;-80
2022/09/24 03:04:07;;;;;;;14.25;11.15;;;15.20;99.90;;;;;;5013637;28;20184;-80
2022/09/24 03:06:33;;;;;;;19.25;11.52;;;15.10;99.90;;;;;;5013664;28;20187;-79
2022/09/24 03:09:01;;;;;;;16.80;12.02;;;15.10;99.90;;;;;;5013546;28;20168;-79
2022/09/24 03:11:27;;;;;;;19.20;12.27;;;15.10;99.90;;;;;;5014352;28;21374;-79
2022/09/24 03:13:53;;;;;;;13.35;11.57;;;15.20;99.90;;;;;;5013318;28;20184;-80
2022/09/24 03:16:19;;;;;;;16.88;12.77;;;15.20;99.90;;;;;;5013212;28;20253;-79
2022/09/24 03:18:46;;;;;;;15.00;11.68;;;15.30;99.90;;;;;;5012257;28;20176;-79
2022/09/24 03:21:13;;;;;;;16.50;12.65;;;15.40;99.90;;;;;;5013265;28;20168;-79
2022/09/24 03:23:40;;;;;;;14.80;12.63;;;15.30;99.90;;;;;;5013476;28;20658;-80
2022/09/24 03:26:06;;;;;;;13.85;11.77;;;15.30;99.90;;;;;;5012756;28;20673;-80
2022/09/24 03:28:32;;;;;;;17.17;12.35;;;15.40;99.90;;;;;;5013335;28;20164;-82
2022/09/24 03:31:01;;;;;;;16.45;12.02;;;15.40;99.90;;;;;;5013402;28;20527;-80
2022/09/24 03:33:31;;;;;;;24.23;13.45;;;15.20;99.90;;;;;;5013877;28;20662;-84
2022/09/24 03:36:00;;;;;;;17.20;11.98;;;15.30;99.90;;;;;;5013615;28;20543;-80
2022/09/24 03:38:28;;;;;;;18.45;13.45;;;15.50;99.90;;;;;;5018275;28;20172;-79
2022/09/24 03:40:54;;;;;;;17.08;12.80;;;15.30;99.90;;;;;;5016942;28;20212;-79
2022/09/24 03:43:19;;;;;;;20.88;13.07;;;15.10;99.90;;;;;;5016985;28;21014;-79
2022/09/24 03:45:45;;;;;;;19.35;13.48;;;15.10;99.90;;;;;;5014819;28;20164;-79
2022/09/24 03:48:11;;;;;;;17.40;13.00;;;15.20;99.90;;;;;;5014047;28;20169;-82
2022/09/24 03:50:37;;;;;;;21.05;13.90;;;15.10;99.90;;;;;;5013852;28;20169;-80
2022/09/24 03:53:03;;;;;;;19.40;13.80;;;15.10;99.90;;;;;;5012930;28;20251;-83
2022/09/24 03:55:28;;;;;;;16.63;13.48;;;15.00;99.90;;;;;;5013335;28;20272;-80
2022/09/24 03:57:54;;;;;;;19.42;14.77;;;14.90;99.90;;;;;;5013195;28;20176;-79
2022/09/24 04:00:20;;;;;;;19.45;14.32;;;15.00;99.90;;;;;;5011831;28;20188;-85
2022/09/24 04:02:46;;;;;;;20.30;14.63;;;14.90;99.90;;;;;;5013186;28;20218;-79
2022/09/24 04:05:12;;;;;;;23.85;14.48;;;15.00;99.90;;;;;;5013185;28;20267;-84
2022/09/24 04:07:37;;;;;;;18.58;14.90;;;15.00;99.90;;;;;;5013527;28;20169;-79
2022/09/24 04:10:03;;;;;;;20.05;14.10;;;15.10;99.90;;;;;;5021968;28;20161;-80
2022/09/24 04:12:30;;;;;;;23.65;15.20;;;15.10;99.90;;;;;;5032972;28;20164;-83
2022/09/24 04:14:55;;;;;;;22.35;14.60;;;15.00;99.90;;;;;;5025465;28;20195;-81
2022/09/24 04:17:21;;;;;;;25.30;15.40;;;15.00;99.90;;;;;;5011914;28;20577;-88
2022/09/24 04:19:46;;;;;;;19.35;14.75;;;15.10;99.90;;;;;;5013319;28;20164;-79
2022/09/24 04:22:12;;;;;;;27.38;16.73;;;15.00;99.90;;;;;;5012978;28;20176;-85
2022/09/24 04:24:38;;;;;;;26.02;15.68;;;15.10;99.90;;;;;;5012320;28;20192;-85
2022/09/24 04:27:03;;;;;;;31.63;16.08;;;15.00;99.90;;;;;;5011584;28;20180;-79
2022/09/24 04:29:29;;;;;;;26.52;14.93;;;14.90;99.90;;;;;;5012556;28;20699;-82
2022/09/24 04:31:55;;;;;;;18.50;13.93;;;14.90;99.90;;;;;;5012912;28;20185;-79
2022/09/24 04:34:21;;;;;;;19.50;14.93;;;14.80;99.90;;;;;;5012865;28;20207;-79
2022/09/24 04:36:46;;;;;;;23.80;15.63;;;14.80;99.90;;;;;;5012700;28;20800;-81
2022/09/24 04:39:12;;;;;;;18.88;15.02;;;14.90;99.90;;;;;;5015327;28;20168;-85
2022/09/24 04:41:39;;;;;;;22.55;14.93;;;14.90;99.90;;;;;;5015822;28;20171;-78
2022/09/24 04:44:04;;;;;;;19.35;14.13;;;15.00;99.90;;;;;;5016724;28;20219;-81
2022/09/24 04:46:33;;;;;;;19.05;14.15;;;14.90;99.90;;;;;;5016716;28;20197;-80
2022/09/24 04:48:59;;;;;;;21.02;15.32;;;15.10;99.90;;;;;;5017012;28;20160;-83
2022/09/24 04:51:24;;;;;;;19.00;14.95;;;15.40;99.90;;;;;;5017000;28;20199;-80
2022/09/24 04:53:50;;;;;;;19.60;14.63;;;15.30;99.90;;;;;;5015177;28;20191;-80
2022/09/24 04:56:15;;;;;;;31.50;16.85;;;15.00;99.90;;;;;;5015281;28;20214;-83
2022/09/24 04:58:41;;;;;;;19.83;14.65;;;14.80;99.90;;;;;;5016347;28;20557;-80
2022/09/24 05:01:07;;;;;;;20.17;15.35;;;14.80;99.90;;;;;;5016107;28;20204;-84
2022/09/24 05:03:33;;;;;;;24.77;15.18;;;15.10;99.90;;;;;;5016581;28;20192;-80
2022/09/24 05:05:59;;;;;;;24.98;15.10;;;15.20;99.90;;;;;;5016169;28;20641;-79
2022/09/24 05:08:24;;;;;;;21.23;15.13;;;15.00;99.90;;;;;;5015895;28;20172;-80
2022/09/24 05:10:52;;;;;;;22.33;15.10;;;15.00;99.90;;;;;;5016650;28;20252;-80
2022/09/24 05:13:17;;;;;;;22.48;15.95;;;15.00;99.90;;;;;;5016074;28;20614;-85
2022/09/24 05:15:43;;;;;;;22.77;16.08;;;15.10;99.90;;;;;;5015895;28;20230;-79
2022/09/24 05:18:08;;;;;;;18.38;14.02;;;15.10;99.90;;;;;;5016229;28;20191;-81
2022/09/24 05:20:34;;;;;;;27.42;16.20;;;15.00;99.90;;;;;;5015656;28;20183;-80
2022/09/24 05:22:59;;;;;;;20.50;15.30;;;15.00;99.90;;;;;;5014912;28;20323;-86
2022/09/24 05:25:25;;;;;;;23.67;14.90;;;14.90;99.90;;;;;;5016196;28;20195;-79
2022/09/24 05:27:53;;;;;;;22.92;15.68;;;14.90;99.90;;;;;;5014671;28;20179;-82
2022/09/24 05:30:20;;;;;;;22.77;14.15;;;15.10;99.90;;;;;;5015656;28;20263;-79
2022/09/24 05:32:50;;;;;;;19.20;13.98;;;14.90;99.90;;;;;;5015952;28;20168;-80
2022/09/24 05:35:20;;;;;;;17.45;14.30;;;14.90;99.90;;;;;;5015619;28;20200;-80
2022/09/24 05:37:48;;;;;;;22.35;14.55;;;14.90;99.90;;;;;;5015529;28;20598;-86
2022/09/24 05:43:00;;;;;;;19.55;15.55;;;15.30;99.90;;;;;;5015771;28;20190;-79
2022/09/24 05:45:26;;;;;;;21.13;13.95;;;15.00;99.90;;;;;;5015917;28;20184;-80
2022/09/24 05:47:51;;;;;;;24.73;15.75;;;15.00;99.90;;;;;;5015559;28;20689;-79
2022/09/24 05:50:17;;;;;;;24.23;15.38;;;15.10;99.90;;;;;;5015908;28;20243;-81
2022/09/24 05:52:42;;;;;;;19.13;14.32;;;15.00;99.90;;;;;;5015716;28;20253;-80
2022/09/24 05:55:09;;;;;;;20.98;14.48;;;15.10;99.90;;;;;;5016803;28;20208;-81
2022/09/24 05:57:34;;;;;;;24.35;16.55;;;15.00;99.90;;;;;;5017288;28;20210;-80
2022/09/24 06:00:00;;;;;;;21.20;15.07;;;15.20;99.90;;;;;;5016542;28;20193;-80
2022/09/24 06:02:26;;;;;;;25.63;15.05;;;15.20;99.90;;;;;;5017449;28;20627;-85
2022/09/24 06:04:52;;;;;;;26.67;14.57;;;15.10;99.90;;;;;;5026952;28;20188;-80
2022/09/24 06:07:20;;;;;;;22.92;15.50;;;15.10;99.90;;;;;;5040500;28;20187;-81
2022/09/24 06:09:46;;;;;;;22.90;16.10;;;15.00;99.90;;;;;;5040550;28;20212;-80
2022/09/24 06:12:13;;;;;;;25.00;16.15;;;15.10;99.90;;;;;;5040662;28;20244;-81
2022/09/24 06:14:41;;;;;;;20.33;15.43;;;15.00;99.90;;;;;;5040765;28;20192;-85
2022/09/24 06:17:07;;;;;;;24.35;16.02;;;15.00;99.90;;;;;;5038917;28;20207;-84
2022/09/24 06:19:33;;;;;;;18.90;14.85;;;15.00;99.90;;;;;;5038460;28;20175;-82
2022/09/24 06:21:58;;;;;;;20.15;14.48;;;15.00;99.90;;;;;;5039125;28;20231;-81
2022/09/24 06:24:24;;;;;;;21.85;14.48;;;15.20;99.90;;;;;;5030677;28;20188;-79
2022/09/24 06:26:50;;;;;;;18.80;14.38;;;15.30;99.90;;;;;;5027489;28;20180;-80
2022/09/24 06:29:22;;;;;;;24.23;14.88;;;15.40;99.90;;;;;;5022936;28;20165;-85
2022/09/24 06:31:48;;;;;;;27.52;15.48;;;15.50;99.90;;;;;;5021637;28;20177;-80
2022/09/24 06:34:14;;;;;;;21.52;15.00;;;15.50;99.90;;;;;;5022649;28;20184;-80
2022/09/24 06:36:40;;;;;;;24.23;14.88;;;15.40;99.90;;;;;;5023731;28;20207;-80
2022/09/24 06:39:17;;;;;;;15.60;13.52;;;15.40;99.90;;;;;;5017620;28;20183;-81
2022/09/24 06:41:43;;;;;;;37.90;14.73;;;15.40;99.90;;;;;;5016975;28;20169;-80
2022/09/24 06:44:09;;;;;;;20.23;14.05;;;15.50;99.90;;;;;;5015836;28;20203;-82
2022/09/24 06:46:37;;;;;;;23.70;14.82;;;15.60;99.90;;;;;;5014710;28;20263;-79
2022/09/24 06:49:20;;;;;;;24.15;14.05;;;15.70;99.90;;;;;;5014761;28;20170;-86
2022/09/24 06:51:49;;;;;;;21.05;14.20;;;15.90;99.90;;;;;;5014867;28;20202;-84
2022/09/24 06:54:18;;;;;;;21.60;13.63;;;15.70;99.90;;;;;;5014764;28;20246;-85
2022/09/24 06:56:44;;;;;;;20.00;13.70;;;15.60;99.90;;;;;;5015286;28;20204;-80
2022/09/24 06:59:09;;;;;;;20.15;13.98;;;15.70;99.90;;;;;;5015917;28;20172;-80
2022/09/24 07:01:35;;;;;;;19.58;14.05;;;15.60;99.90;;;;;;5013147;28;20183;-80
2022/09/24 07:04:01;;;;;;;20.95;13.93;;;15.50;99.90;;;;;;5014819;28;20260;-82
2022/09/24 07:07:28;;;;;;;23.52;14.77;;;15.40;99.90;;;;;;5014521;28;20646;-80
2022/09/24 07:09:18;;;;;;;18.40;13.43;;;15.50;99.90;;;;;;5014182;28;20176;-85
2022/09/24 07:11:51;;;;;;;21.55;13.75;;;15.70;99.90;;;;;;5014275;28;20176;-81
2022/09/24 07:14:17;;;;;;;20.60;14.93;;;15.60;99.90;;;;;;5012810;28;20185;-81
2022/09/24 07:16:42;;;;;;;20.35;14.90;;;15.60;99.90;;;;;;5013919;28;20689;-80
2022/09/24 07:19:08;;;;;;;29.13;15.00;;;15.60;99.90;;;;;;5013851;28;20191;-79
2022/09/24 07:21:34;;;;;;;26.00;16.83;;;15.50;99.90;;;;;;5014156;28;20207;-80
2022/09/24 07:23:59;;;;;;;21.33;14.20;;;15.60;99.90;;;;;;5012101;28;20231;-80
2022/09/24 07:26:28;;;;;;;21.73;14.45;;;15.60;99.90;;;;;;5013352;28;20192;-80
2022/09/24 07:28:53;;;;;;;20.20;15.27;;;15.70;99.90;;;;;;5013450;28;20176;-81
2022/09/24 07:31:19;;;;;;;19.42;13.73;;;15.50;99.90;;;;;;5013591;28;20173;-80
2022/09/24 07:33:56;;;;;;;27.50;13.27;;;15.50;99.90;;;;;;5013745;28;20693;-86
2022/09/24 07:36:25;;;;;;;16.30;13.40;;;15.50;99.90;;;;;;5013060;28;20208;-86
2022/09/24 07:38:50;;;;;;;17.85;13.82;;;15.50;99.90;;;;;;5012643;28;20184;-81
2022/09/24 07:41:17;;;;;;;20.83;14.70;;;15.50;99.90;;;;;;5012091;28;20255;-79
2022/09/24 07:43:43;;;;;;;17.95;13.70;;;15.60;99.90;;;;;;5013122;28;20195;-83
2022/09/24 07:46:08;;;;;;;26.55;15.38;;;15.60;99.90;;;;;;5012225;28;20176;-81
2022/09/24 07:48:34;;;;;;;19.48;14.00;;;15.70;99.90;;;;;;5013296;28;20160;-81
2022/09/24 07:51:00;;;;;;;19.90;14.40;;;15.80;99.90;;;;;;5011509;28;20176;-79
2022/09/24 07:53:28;;;;;;;15.38;12.60;;;15.80;99.90;;;;;;5012607;28;20169;-85
2022/09/24 07:55:58;;;;;;;19.73;13.98;;;15.70;99.90;;;;;;5013323;28;20701;-81
2022/09/24 07:58:24;;;;;;;28.63;14.55;;;15.60;99.90;;;;;;5011861;28;20216;-80
2022/09/24 08:00:57;;;;;;;18.98;13.32;;;15.80;99.90;;;;;;5012983;28;20725;-88
2022/09/24 08:03:23;;;;;;;23.23;14.30;;;15.90;99.90;;;;;;5013068;28;20165;-80
2022/09/24 08:05:48;;;;;;;23.08;14.68;;;16.10;99.90;;;;;;5012879;28;20219;-82
2022/09/24 08:08:14;;;;;;;21.25;14.07;;;16.10;99.90;;;;;;5012703;28;20196;-82
2022/09/24 08:10:40;;;;;;;18.73;14.35;;;15.90;99.90;;;;;;5013239;28;20626;-79
2022/09/24 08:13:06;;;;;;;25.13;14.32;;;15.90;99.90;;;;;;5012666;28;20215;-80
2022/09/24 08:15:32;;;;;;;20.25;14.18;;;16.00;99.90;;;;;;5012633;28;20181;-80
2022/09/24 08:18:02;;;;;;;21.83;13.20;;;16.30;99.90;;;;;;5012636;28;20637;-80
2022/09/24 08:20:28;;;;;;;23.92;13.98;;;16.20;99.90;;;;;;5012781;28;20284;-80
2022/09/24 08:22:59;;;;;;;19.90;14.15;;;16.10;99.90;;;;;;5012627;28;20172;-79
2022/09/24 08:25:25;;;;;;;17.70;12.85;;;15.80;99.90;;;;;;5011558;28;20220;-80
2022/09/24 08:27:50;;;;;;;22.90;13.18;;;16.00;99.90;;;;;;5011726;28;20631;-78
2022/09/24 08:30:16;;;;;;;20.92;13.82;;;16.00;99.90;;;;;;5012662;28;20173;-80
2022/09/24 08:32:46;;;;;;;23.85;14.07;;;16.10;99.90;;;;;;5012696;28;20228;-80
2022/09/24 08:35:14;;;;;;;20.33;13.75;;;16.10;99.90;;;;;;5012572;28;20274;-79
2022/09/24 08:37:40;;;;;;;19.27;13.38;;;16.10;99.90;;;;;;5012755;28;20658;-81
2022/09/24 08:40:45;;;;;;;22.00;13.15;;;16.20;99.90;;;;;;5012279;28;20172;-83
2022/09/24 08:43:35;;;;;;;16.52;13.13;;;16.40;99.90;;;;;;5001547;28;20660;-80
2022/09/24 08:48:55;;;;;;;15.93;11.38;;;16.40;99.90;;;;;;5012138;28;20175;-81
2022/09/24 08:51:21;;;;;;;14.27;12.20;;;16.20;99.90;;;;;;5012262;28;20177;-81
2022/09/24 08:53:58;;;;;;;18.98;10.95;;;16.20;99.90;;;;;;5010682;28;20655;-80
2022/09/24 08:56:31;;;;;;;17.17;11.88;;;16.40;99.90;;;;;;5012560;28;20204;-81
2022/09/24 08:59:02;;;;;;;23.70;12.40;;;16.30;99.90;;;;;;5010747;28;20214;-80
2022/09/24 09:01:30;;;;;;;14.00;12.25;;;16.40;99.90;;;;;;5011062;28;20168;-81
2022/09/24 09:04:11;;;;;;;13.63;11.15;;;16.20;99.90;;;;;;5010893;28;20666;-80
2022/09/24 09:06:42;;;;;;;15.00;10.65;;;16.10;99.90;;;;;;5012723;28;20512;-81
2022/09/24 09:09:16;;;;;;;16.52;11.93;;;16.20;99.90;;;;;;5012493;28;20169;-77
2022/09/24 09:11:48;;;;;;;18.23;12.50;;;16.30;99.90;;;;;;5013393;28;20168;-78
2022/09/24 09:14:55;;;;;;;18.98;13.63;;;16.40;99.90;;;;;;5012895;28;20200;-78
2022/09/24 09:17:28;;;;;;;13.60;10.95;;;16.40;99.90;;;;;;5008505;28;20270;-78
2022/09/24 09:20:00;;;;;;;13.60;10.82;;;16.60;99.90;;;;;;5012607;28;20595;-79
2022/09/24 09:22:36;;;;;;;13.82;10.00;;;16.60;99.90;;;;;;5012190;28;20168;-78
2022/09/24 09:25:20;;;;;;;13.98;10.27;;;16.60;99.90;;;;;;5015673;28;20279;-78
2022/09/24 09:27:50;;;;;;;17.83;9.30;;;16.60;99.90;;;;;;5016056;28;20175;-77
2022/09/24 09:30:19;;;;;;;12.75;9.60;;;16.30;99.90;;;;;;5015947;28;20200;-78
2022/09/24 09:33:13;;;;;;;11.32;9.07;;;16.20;99.90;;;;;;5015600;28;20250;-78
2022/09/24 09:36:04;;;;;;;12.02;9.65;;;16.10;99.90;;;;;;5015197;28;20185;-78
2022/09/24 09:38:59;;;;;;;11.38;8.73;;;16.20;99.90;;;;;;5015579;28;20678;-78
2022/09/24 09:41:51;;;;;;;13.05;9.65;;;16.00;99.90;;;;;;5015309;28;20207;-78
2022/09/24 09:44:25;;;;;;;16.92;10.00;;;15.90;99.90;;;;;;5015489;28;20199;-77
2022/09/24 09:47:03;;;;;;;14.80;11.05;;;16.00;99.90;;;;;;5015185;28;20164;-80
2022/09/24 09:49:35;;;;;;;14.82;11.38;;;16.10;99.90;;;;;;5015936;28;20176;-79
2022/09/24 09:52:12;;;;;;;17.23;11.90;;;16.10;99.90;;;;;;5016256;28;20165;-78
2022/09/24 09:54:38;;;;;;;17.73;11.63;;;16.30;99.90;;;;;;5031107;28;20223;-78
2022/09/24 09:57:05;;;;;;;24.08;14.65;;;16.40;99.90;;;;;;5016197;28;20219;-79
2022/09/24 09:59:34;;;;;;;16.10;13.13;;;16.30;99.90;;;;;;5016958;28;20219;-80
2022/09/24 10:02:00;;;;;;;15.60;12.45;;;16.40;99.90;;;;;;5014545;28;20570;-80
2022/09/24 10:04:38;;;;;;;27.38;13.40;;;16.20;99.90;;;;;;5013818;28;20628;-79
2022/09/24 10:07:14;;;;;;;18.63;12.85;;;16.30;99.90;;;;;;5015076;28;20188;-78
2022/09/24 10:09:42;;;;;;;19.55;13.23;;;16.20;99.90;;;;;;5015209;28;20227;-78
2022/09/24 10:12:15;;;;;;;19.33;12.50;;;16.30;99.90;;;;;;5015126;28;20160;-79
2022/09/24 10:14:41;;;;;;;16.38;13.10;;;16.20;99.90;;;;;;5015144;28;20188;-79
2022/09/24 10:17:17;;;;;;;22.60;14.27;;;16.10;99.90;;;;;;5015155;28;20296;-79
2022/09/24 10:19:49;;;;;;;13.18;11.82;;;15.90;99.90;;;;;;5015063;28;20622;-79
2022/09/24 10:22:21;;;;;;;17.50;13.10;;;16.00;99.90;;;;;;5013551;28;20223;-79
2022/09/24 10:24:48;;;;;;;17.95;13.13;;;16.00;99.90;;;;;;5015069;28;20192;-79
2022/09/24 10:27:24;;;;;;;14.10;12.52;;;16.00;99.90;;;;;;5014791;28;20169;-79
2022/09/24 10:32:39;;;;;;;14.90;12.60;;;15.60;99.90;;;;;;5014680;28;20607;-81
2022/09/24 10:35:36;;;;;;;17.05;13.23;;;15.60;99.90;;;;;;5012892;28;20212;-80
2022/09/24 10:38:14;;;;;;;17.23;13.48;;;15.80;99.90;;;;;;5014209;28;20658;-79
2022/09/24 10:40:40;;;;;;;22.90;13.15;;;16.00;99.90;;;;;;5014573;28;20176;-79
2022/09/24 10:43:06;;;;;;;22.20;15.07;;;15.90;99.90;;;;;;5014388;28;20164;-78
2022/09/24 10:46:22;;;;;;;15.95;13.32;;;16.00;99.90;;;;;;5013978;28;20187;-79
2022/09/24 10:49:16;;;;;;;16.63;13.05;;;16.20;99.90;;;;;;4992841;28;20593;-78
2022/09/24 10:51:51;;;;;;;16.75;12.50;;;16.10;99.90;;;;;;5014506;28;20180;-79
2022/09/24 10:54:41;;;;;;;15.75;12.25;;;16.10;99.90;;;;;;5018096;28;20270;-78
2022/09/24 10:57:24;;;;;;;15.00;12.32;;;16.20;99.90;;;;;;5037445;28;20215;-79
2022/09/24 11:00:17;;;;;;;17.67;13.35;;;16.40;99.90;;;;;;5034557;28;20171;-78
2022/09/24 11:03:00;;;;;;;14.32;11.65;;;16.30;99.90;;;;;;5015600;28;20164;-78
2022/09/24 11:05:34;;;;;;;22.75;12.90;;;16.40;99.90;;;;;;5013781;28;20210;-79
2022/09/24 11:08:12;;;;;;;22.50;13.07;;;16.50;99.90;;;;;;5014089;28;20211;-79
2022/09/24 11:11:13;;;;;;;16.27;12.10;;;16.60;99.90;;;;;;5012922;28;20172;-78
2022/09/24 11:14:03;;;;;;;15.18;12.18;;;16.50;99.90;;;;;;5005925;28;20287;-79
2022/09/24 11:16:47;;;;;;;16.42;11.43;;;16.40;99.90;;;;;;5014170;28;20209;-79
2022/09/24 11:19:13;;;;;;;15.13;11.95;;;16.60;99.90;;;;;;5014130;28;20507;-79
2022/09/24 11:21:47;;;;;;;20.40;12.77;;;16.40;99.90;;;;;;5013662;28;20189;-79
2022/09/24 11:24:31;;;;;;;17.67;12.75;;;16.30;99.90;;;;;;5012409;28;20681;-80
2022/09/24 11:27:25;;;;;;;16.90;12.57;;;16.50;99.90;;;;;;5010453;28;20172;-80
2022/09/24 11:30:09;;;;;;;22.25;12.18;;;16.70;99.90;;;;;;4993119;28;20212;-78
2022/09/24 11:32:37;;;;;;;21.65;15.35;;;16.90;99.90;;;;;;4992763;28;20183;-78
2022/09/24 11:35:15;;;;;;;16.58;13.88;;;17.00;99.90;;;;;;4993524;28;20205;-80
2022/09/24 11:37:50;;;;;;;20.55;14.07;;;17.00;99.90;;;;;;4995206;28;20714;-83
2022/09/24 11:40:32;;;;;;;16.15;13.60;;;17.20;99.90;;;;;;4994978;28;20195;-81
2022/09/24 11:43:27;;;;;;;17.88;12.52;;;16.80;99.90;;;;;;5012127;28;20187;-89
2022/09/24 11:46:09;;;;;;;16.45;13.70;;;17.00;99.90;;;;;;5005916;28;20603;-81
2022/09/24 11:48:40;;;;;;;17.05;13.23;;;17.10;99.90;;;;;;5002466;28;20181;-78
2022/09/24 11:51:34;;;;;;;15.32;12.68;;;17.10;99.90;;;;;;4999074;28;20176;-80
2022/09/24 11:54:18;;;;;;;17.42;14.02;;;16.90;99.90;;;;;;5004975;28;20538;-86
2022/09/24 11:56:48;;;;;;;20.33;13.40;;;17.00;99.90;;;;;;4976307;28;20198;-79
2022/09/24 11:59:32;;;;;;;15.32;13.07;;;16.80;99.90;;;;;;4974259;28;20648;-80
2022/09/24 12:02:12;;;;;;;28.85;14.90;;;16.80;99.90;;;;;;4974349;28;20276;-79
2022/09/24 12:05:11;;;;;;;30.40;15.60;;;16.80;99.90;;;;;;4985021;28;20732;-78
2022/09/24 12:07:44;;;;;;;19.05;15.43;;;16.90;99.90;;;;;;5013626;28;20180;-79
2022/09/24 12:10:34;;;;;;;17.40;14.25;;;17.10;99.90;;;;;;5008199;28;20177;-77
2022/09/24 12:13:16;;;;;;;21.63;16.38;;;17.00;99.90;;;;;;4995667;28;20272;-80
2022/09/24 12:16:09;;;;;;;19.70;15.15;;;17.00;99.90;;;;;;4993185;28;20573;-80
2022/09/24 12:19:08;;;;;;;16.50;14.68;;;17.00;99.90;;;;;;5010911;28;20189;-78
2022/09/24 12:21:40;;;;;;;30.35;15.88;;;17.20;99.90;;;;;;5011022;28;20219;-78
2022/09/24 12:24:22;;;;;;;22.70;14.57;;;17.20;99.90;;;;;;5012793;28;20672;-78
2022/09/24 12:26:49;;;;;;;32.67;20.70;;;17.10;99.90;;;;;;5012838;28;20248;-79
2022/09/24 12:32:55;;;;;;;32.17;16.73;;;17.10;99.90;;;;;;5012530;28;20187;-79
2022/09/24 12:35:39;;;;;;;20.77;15.98;;;16.90;99.90;;;;;;5012255;28;20674;-79
2022/09/24 12:38:09;;;;;;;24.05;16.35;;;17.00;99.90;;;;;;5012810;28;20226;-80
2022/09/24 12:40:53;;;;;;;20.67;15.02;;;16.80;99.90;;;;;;5012835;28;20176;-79
2022/09/24 12:43:28;;;;;;;17.60;14.80;;;17.00;99.90;;;;;;5013104;28;20177;-79
2022/09/24 12:46:01;;;;;;;17.80;13.93;;;16.90;99.90;;;;;;5012714;28;20199;-81
2022/09/24 12:48:30;;;;;;;19.45;15.82;;;17.10;99.90;;;;;;5013176;28;20164;-79
2022/09/24 12:51:01;;;;;;;19.02;14.70;;;17.10;99.90;;;;;;5012616;28;20164;-81
2022/09/24 12:53:33;;;;;;;19.73;14.55;;;16.90;99.90;;;;;;5012681;28;20176;-79
2022/09/24 12:56:01;;;;;;;21.02;13.95;;;17.20;99.90;;;;;;5015849;28;20595;-79
2022/09/24 12:58:39;;;;;;;20.85;15.20;;;17.00;99.90;;;;;;5012927;28;20176;-80
2022/09/24 13:01:13;;;;;;;19.38;16.45;;;17.10;99.90;;;;;;5015808;28;20171;-79
2022/09/24 13:03:41;;;;;;;16.65;13.60;;;17.00;99.90;;;;;;5015937;28;20793;-79